createdAt,value
2018-09-05T00:01:22.429Z,16.00
2018-09-05T00:03:51.625Z,16.00
2018-09-05T00:06:20.756Z,16.00
2018-09-05T00:08:49.798Z,15.90
2018-09-05T00:11:19.075Z,15.90
2018-09-05T00:13:48.632Z,15.90
2018-09-05T00:16:17.826Z,15.90
2018-09-05T00:18:46.980Z,15.90
2018-09-05T00:21:16.319Z,15.90
2018-09-05T00:23:45.512Z,16.00
2018-09-05T00:26:14.922Z,16.00
2018-09-05T00:28:44.056Z,16.10
2018-09-05T00:31:13.217Z,16.10
2018-09-05T00:33:42.304Z,16.10
2018-09-05T00:36:11.513Z,16.10
2018-09-05T00:38:40.612Z,16.10
2018-09-05T00:41:09.905Z,16.00
2018-09-05T00:43:39.065Z,15.90
2018-09-05T00:46:08.338Z,15.90
2018-09-05T00:48:37.656Z,15.80
2018-09-05T00:51:06.955Z,15.70
2018-09-05T00:53:36.193Z,15.70
2018-09-05T00:56:05.772Z,15.60
2018-09-05T00:58:34.871Z,15.50
2018-09-05T01:01:05.068Z,15.40
2018-09-05T01:03:35.069Z,15.40
2018-09-05T01:06:04.903Z,15.40
2018-09-05T01:08:34.767Z,15.40
2018-09-05T01:11:04.500Z,15.50
2018-09-05T01:13:34.618Z,15.50
2018-09-05T01:16:04.430Z,15.50
2018-09-05T01:18:33.920Z,15.50
2018-09-05T01:21:03.210Z,15.50
2018-09-05T01:23:32.602Z,15.50
2018-09-05T01:26:02.173Z,15.40
2018-09-05T01:28:32.569Z,15.40
2018-09-05T01:31:01.955Z,15.30
2018-09-05T01:33:31.838Z,15.30
2018-09-05T01:36:06.613Z,15.30
2018-09-05T01:38:36.272Z,15.20
2018-09-05T01:41:05.746Z,15.20
2018-09-05T01:43:35.124Z,15.20
2018-09-05T01:46:04.588Z,15.10
2018-09-05T01:48:35.101Z,15.10
2018-09-05T01:51:04.751Z,15.10
2018-09-05T01:53:34.764Z,15.10
2018-09-05T01:56:04.374Z,15.30
2018-09-05T01:58:33.848Z,15.40
2018-09-05T02:01:03.152Z,15.50
2018-09-05T02:03:32.484Z,15.50
2018-09-05T02:06:02.122Z,15.60
2018-09-05T02:08:31.596Z,15.70
2018-09-05T02:11:01.151Z,15.70
2018-09-05T02:13:30.779Z,15.70
2018-09-05T02:15:59.957Z,15.70
2018-09-05T02:18:28.969Z,15.70
2018-09-05T02:20:57.994Z,15.70
2018-09-05T02:23:27.046Z,15.70
2018-09-05T02:25:56.286Z,15.60
2018-09-05T02:28:25.446Z,15.60
2018-09-05T02:30:54.593Z,15.60
2018-09-05T02:33:23.865Z,15.60
2018-09-05T02:35:53.118Z,15.50
2018-09-05T02:38:22.275Z,15.40
2018-09-05T02:40:51.588Z,15.40
2018-09-05T02:43:26.054Z,15.30
2018-09-05T02:45:55.161Z,15.20
2018-09-05T02:48:24.427Z,15.20
2018-09-05T02:50:53.450Z,15.20
2018-09-05T02:53:22.622Z,15.20
2018-09-05T02:55:56.996Z,15.10
2018-09-05T02:58:26.014Z,15.10
2018-09-05T03:00:55.190Z,15.00
2018-09-05T03:03:24.384Z,15.00
2018-09-05T03:05:53.724Z,15.00
2018-09-05T03:08:23.002Z,14.90
2018-09-05T03:10:52.317Z,14.90
2018-09-05T03:13:22.108Z,14.80
2018-09-05T03:15:51.243Z,14.80
2018-09-05T03:18:20.361Z,14.80
2018-09-05T03:20:49.577Z,14.80
2018-09-05T03:23:19.119Z,14.80
2018-09-05T03:25:48.132Z,14.70
2018-09-05T03:28:17.218Z,14.60
2018-09-05T03:30:46.343Z,14.60
2018-09-05T03:33:15.495Z,14.50
2018-09-05T03:35:44.580Z,14.40
2018-09-05T03:38:13.926Z,14.40
2018-09-05T03:40:42.988Z,14.40
2018-09-05T03:43:12.222Z,14.40
2018-09-05T03:45:41.228Z,14.40
2018-09-05T03:48:10.308Z,14.30
2018-09-05T03:50:39.280Z,14.30
2018-09-05T03:53:08.302Z,14.30
2018-09-05T03:55:37.852Z,14.20
2018-09-05T03:58:07.170Z,14.20
2018-09-05T04:00:36.781Z,14.10
2018-09-05T04:03:06.335Z,14.10
2018-09-05T04:05:35.536Z,14.00
2018-09-05T04:08:04.619Z,14.00
2018-09-05T04:10:34.569Z,13.90
2018-09-05T04:13:05.101Z,13.90
2018-09-05T04:15:34.182Z,13.90
2018-09-05T04:18:03.305Z,14.00
2018-09-05T04:20:33.201Z,14.00
2018-09-05T04:23:02.372Z,14.00
2018-09-05T04:25:31.519Z,13.90
2018-09-05T04:28:00.964Z,13.90
2018-09-05T04:30:30.084Z,13.90
2018-09-05T04:32:59.447Z,13.80
2018-09-05T04:35:29.638Z,13.80
2018-09-05T04:37:58.920Z,13.80
2018-09-05T04:40:28.062Z,13.80
2018-09-05T04:42:57.286Z,13.70
2018-09-05T04:45:26.512Z,13.80
2018-09-05T04:47:55.675Z,13.80
2018-09-05T04:50:25.570Z,13.80
2018-09-05T04:52:54.651Z,13.80
2018-09-05T04:55:23.773Z,13.80
2018-09-05T04:57:52.910Z,13.80
2018-09-05T05:00:22.098Z,13.90
2018-09-05T05:02:51.364Z,14.10
2018-09-05T05:05:20.776Z,14.30
2018-09-05T05:07:50.128Z,14.60
2018-09-05T05:10:19.527Z,14.80
2018-09-05T05:12:48.867Z,15.10
2018-09-05T05:15:18.241Z,15.40
2018-09-05T05:17:47.755Z,15.50
2018-09-05T05:20:17.058Z,15.60
2018-09-05T05:22:46.377Z,15.80
2018-09-05T05:25:15.839Z,16.30
2018-09-05T05:27:45.108Z,16.70
2018-09-05T05:30:14.441Z,17.20
2018-09-05T05:32:43.649Z,18.00
2018-09-05T05:35:12.828Z,18.80
2018-09-05T05:37:42.940Z,19.60
2018-09-05T05:40:12.387Z,20.30
2018-09-05T05:42:41.611Z,21.00
2018-09-05T05:45:11.007Z,21.60
2018-09-05T05:47:40.202Z,22.20
2018-09-05T05:50:09.355Z,22.60
2018-09-05T05:52:38.666Z,23.20
2018-09-05T05:55:08.938Z,23.60
2018-09-05T05:57:38.167Z,24.00
2018-09-05T06:00:08.361Z,24.40
2018-09-05T06:02:37.685Z,24.80
2018-09-05T06:05:07.350Z,25.00
2018-09-05T06:07:36.589Z,25.40
2018-09-05T06:10:05.947Z,25.60
2018-09-05T06:12:35.420Z,26.10
2018-09-05T06:15:04.730Z,26.60
2018-09-05T06:17:34.051Z,27.00
2018-09-05T06:20:03.415Z,27.40
2018-09-05T06:22:32.676Z,27.60
2018-09-05T06:25:02.142Z,28.00
2018-09-05T06:27:31.524Z,28.50
2018-09-05T06:30:00.724Z,28.90
2018-09-05T06:32:30.123Z,29.40
2018-09-05T06:34:59.531Z,29.50
2018-09-05T06:37:28.801Z,29.70
2018-09-05T06:39:57.929Z,30.30
2018-09-05T06:42:27.093Z,30.70
2018-09-05T06:44:56.274Z,30.90
2018-09-05T06:47:25.406Z,31.10
2018-09-05T06:49:54.869Z,31.30
2018-09-05T06:52:24.142Z,31.50
2018-09-05T06:54:53.463Z,31.30
2018-09-05T06:57:23.142Z,31.60
2018-09-05T06:59:52.388Z,31.80
2018-09-05T07:02:21.612Z,31.40
2018-09-05T07:04:51.366Z,31.50
2018-09-05T07:07:20.696Z,32.10
2018-09-05T07:09:50.079Z,31.80
2018-09-05T07:12:19.384Z,32.00
2018-09-05T07:14:48.689Z,32.40
2018-09-05T07:17:17.973Z,32.80
2018-09-05T07:19:47.269Z,33.20
2018-09-05T07:22:16.553Z,33.90
2018-09-05T07:24:45.876Z,34.70
2018-09-05T07:27:15.193Z,34.90
2018-09-05T07:29:44.464Z,35.20
2018-09-05T07:32:13.840Z,35.40
2018-09-05T07:34:43.133Z,36.10
2018-09-05T07:37:12.525Z,36.50
2018-09-05T07:39:42.901Z,36.70
2018-09-05T07:42:12.348Z,37.00
2018-09-05T07:44:41.467Z,36.60
2018-09-05T07:47:10.900Z,36.70
2018-09-05T07:49:46.955Z,35.80
2018-09-05T07:52:16.219Z,35.70
2018-09-05T07:54:45.557Z,36.50
2018-09-05T07:57:14.828Z,36.80
2018-09-05T07:59:43.911Z,36.20
2018-09-05T08:02:13.592Z,36.20
2018-09-05T08:04:42.912Z,36.70
2018-09-05T08:07:12.302Z,37.20
2018-09-05T08:09:41.533Z,37.80
2018-09-05T08:12:10.859Z,38.60
2018-09-05T08:14:40.164Z,39.00
2018-09-05T08:17:09.530Z,39.40
2018-09-05T08:19:39.283Z,39.80
2018-09-05T08:22:08.629Z,39.70
2018-09-05T08:24:37.824Z,39.60
2018-09-05T08:27:07.925Z,40.00
2018-09-05T08:29:37.187Z,40.50
2018-09-05T08:32:06.678Z,40.50
2018-09-05T08:34:36.165Z,40.30
2018-09-05T08:37:05.633Z,40.70
2018-09-05T08:39:34.634Z,41.50
2018-09-05T08:42:03.868Z,42.20
2018-09-05T08:44:33.098Z,42.50
2018-09-05T08:47:02.623Z,41.10
2018-09-05T08:49:31.836Z,39.80
2018-09-05T08:52:00.992Z,39.30
2018-09-05T08:54:30.780Z,38.60
2018-09-05T08:56:59.886Z,38.80
2018-09-05T08:59:29.161Z,39.70
2018-09-05T09:01:58.498Z,40.40
2018-09-05T09:04:28.184Z,40.40
2018-09-05T09:06:57.639Z,40.70
2018-09-05T09:09:27.301Z,40.20
2018-09-05T09:11:57.154Z,39.00
2018-09-05T09:14:26.356Z,37.70
2018-09-05T09:16:55.649Z,37.10
2018-09-05T09:19:25.234Z,37.70
2018-09-05T09:21:54.516Z,37.90
2018-09-05T09:24:23.897Z,37.90
2018-09-05T09:26:53.055Z,37.80
2018-09-05T09:29:24.549Z,38.60
2018-09-05T09:31:53.869Z,39.50
2018-09-05T09:34:23.037Z,40.30
2018-09-05T09:36:52.383Z,40.10
2018-09-05T09:39:21.819Z,39.80
2018-09-05T09:41:51.144Z,40.30
2018-09-05T09:44:20.413Z,41.30
2018-09-05T09:46:49.807Z,41.80
2018-09-05T09:49:19.052Z,41.60
2018-09-05T09:51:48.413Z,41.60
2018-09-05T09:54:17.763Z,41.50
2018-09-05T09:56:47.271Z,41.30
2018-09-05T09:59:17.533Z,41.00
2018-09-05T10:01:52.416Z,41.50
2018-09-05T10:04:27.173Z,42.20
2018-09-05T10:07:01.797Z,42.50
2018-09-05T10:09:38.086Z,42.80
2018-09-05T10:12:12.535Z,42.90
2018-09-05T10:14:48.188Z,42.80
2018-09-05T10:17:22.846Z,42.90
2018-09-05T10:19:57.498Z,43.00
2018-09-05T10:22:27.294Z,42.80
2018-09-05T10:24:57.186Z,42.00
2018-09-05T10:27:28.475Z,41.20
2018-09-05T10:29:59.149Z,40.90
2018-09-05T10:32:29.363Z,41.20
2018-09-05T10:34:58.668Z,41.70
2018-09-05T10:37:28.092Z,42.30
2018-09-05T10:39:57.194Z,42.60
2018-09-05T10:42:26.421Z,42.60
2018-09-05T10:44:55.738Z,42.60
2018-09-05T10:47:24.999Z,42.60
2018-09-05T10:49:54.272Z,40.20
2018-09-05T10:52:23.690Z,38.80
2018-09-05T10:54:53.026Z,38.80
2018-09-05T10:57:22.200Z,39.30
2018-09-05T10:59:51.523Z,39.80
2018-09-05T11:02:21.098Z,40.30
2018-09-05T11:04:50.281Z,40.90
2018-09-05T11:07:19.582Z,41.40
2018-09-05T11:09:48.831Z,42.10
2018-09-05T11:12:18.001Z,42.70
2018-09-05T11:14:48.107Z,42.50
2018-09-05T11:17:17.439Z,42.30
2018-09-05T11:19:46.616Z,42.00
2018-09-05T11:22:15.877Z,41.20
2018-09-05T11:24:45.187Z,40.60
2018-09-05T11:27:14.518Z,39.60
2018-09-05T11:29:43.785Z,39.60
2018-09-05T11:32:12.793Z,39.80
2018-09-05T11:34:41.859Z,40.20
2018-09-05T11:37:17.640Z,40.60
2018-09-05T11:39:46.768Z,41.00
2018-09-05T11:42:16.572Z,41.50
2018-09-05T11:44:45.642Z,41.60
2018-09-05T11:47:14.802Z,41.30
2018-09-05T11:49:43.912Z,40.90
2018-09-05T11:52:13.106Z,40.90
2018-09-05T11:54:42.248Z,40.90
2018-09-05T11:57:11.578Z,40.90
2018-09-05T11:59:40.960Z,41.10
2018-09-05T12:02:10.832Z,41.40
2018-09-05T12:04:40.937Z,41.50
2018-09-05T12:07:10.220Z,41.80
2018-09-05T12:09:39.532Z,42.00
2018-09-05T12:12:08.886Z,41.50
2018-09-05T12:14:38.147Z,41.10
2018-09-05T12:17:07.745Z,41.00
2018-09-05T12:19:36.933Z,40.70
2018-09-05T12:22:06.358Z,40.50
2018-09-05T12:24:35.777Z,40.20
2018-09-05T12:27:04.892Z,40.00
2018-09-05T12:29:34.245Z,39.50
2018-09-05T12:32:04.109Z,39.10
2018-09-05T12:34:33.308Z,38.40
2018-09-05T12:37:02.537Z,37.20
2018-09-05T12:39:31.899Z,36.60
2018-09-05T12:42:00.959Z,35.60
2018-09-05T12:44:30.082Z,34.40
2018-09-05T12:46:59.228Z,34.50
2018-09-05T12:49:28.669Z,35.00
2018-09-05T12:51:57.884Z,35.20
2018-09-05T12:54:27.135Z,35.00
2018-09-05T12:56:56.327Z,34.70
2018-09-05T12:59:25.413Z,34.10
2018-09-05T13:01:54.661Z,34.10
2018-09-05T13:04:23.903Z,34.50
2018-09-05T13:06:53.303Z,35.20
2018-09-05T13:09:22.611Z,35.60
2018-09-05T13:11:52.602Z,35.90
2018-09-05T13:14:22.044Z,35.70
2018-09-05T13:46:57.625Z,34.60
2018-09-05T13:49:26.963Z,33.00
2018-09-05T13:52:03.395Z,33.10
2018-09-05T13:54:33.940Z,33.40
2018-09-05T13:57:03.399Z,33.50
2018-09-05T13:59:33.133Z,33.70
2018-09-05T14:02:02.517Z,33.90
2018-09-05T14:04:32.359Z,34.00
2018-09-05T14:07:01.810Z,34.00
2018-09-05T14:09:31.034Z,33.70
2018-09-05T14:12:00.404Z,33.20
2018-09-05T14:14:30.729Z,33.10
2018-09-05T14:17:01.214Z,32.90
2018-09-05T14:19:30.455Z,32.40
2018-09-05T14:22:00.881Z,32.10
2018-09-05T14:24:32.464Z,32.10
2018-09-05T14:27:01.823Z,32.00
2018-09-05T14:29:31.054Z,32.10
2018-09-05T14:32:00.529Z,32.20
2018-09-05T14:34:29.847Z,32.20
2018-09-05T14:36:59.723Z,32.00
2018-09-05T14:39:29.030Z,32.00
2018-09-05T14:41:58.442Z,31.50
2018-09-05T14:44:27.691Z,31.20
2018-09-05T14:46:57.946Z,30.80
2018-09-05T14:49:27.220Z,30.70
2018-09-05T14:51:56.507Z,30.50
2018-09-05T14:54:25.901Z,30.40
2018-09-05T14:56:55.126Z,30.30
2018-09-05T14:59:24.357Z,30.00
2018-09-05T15:01:53.797Z,29.70
2018-09-05T15:04:23.383Z,29.60
2018-09-05T15:06:52.738Z,29.50
2018-09-05T15:09:21.869Z,29.60
2018-09-05T15:11:51.164Z,29.70
2018-09-05T15:14:20.323Z,29.80
2018-09-05T15:16:49.413Z,29.70
2018-09-05T15:19:18.536Z,29.80
2018-09-05T15:21:48.118Z,29.90
2018-09-05T15:24:17.577Z,30.10
2018-09-05T15:26:46.893Z,30.20
2018-09-05T15:29:16.175Z,30.30
2018-09-05T15:31:45.400Z,30.30
2018-09-05T15:34:14.707Z,30.20
2018-09-05T15:36:44.986Z,30.20
2018-09-05T15:39:14.258Z,30.10
2018-09-05T15:41:43.459Z,29.90
2018-09-05T15:44:12.751Z,29.90
2018-09-05T15:46:42.091Z,29.80
2018-09-05T15:49:11.310Z,29.60
2018-09-05T15:51:40.548Z,29.40
2018-09-05T15:54:10.397Z,29.20
2018-09-05T15:56:39.710Z,29.00
2018-09-05T15:59:08.835Z,28.80
2018-09-05T16:01:38.116Z,28.80
2018-09-05T16:04:07.352Z,28.70
2018-09-05T16:06:37.751Z,28.60
2018-09-05T16:09:08.930Z,28.40
2018-09-05T16:11:38.177Z,28.30
2018-09-05T16:14:07.495Z,28.20
2018-09-05T16:16:36.834Z,28.20
2018-09-05T16:19:06.310Z,28.20
2018-09-05T16:21:35.681Z,28.30
2018-09-05T16:24:04.984Z,28.30
2018-09-05T16:26:34.228Z,28.20
2018-09-05T16:29:03.479Z,28.10
2018-09-05T16:31:32.800Z,28.00
2018-09-05T16:34:02.302Z,28.00
2018-09-05T16:36:31.596Z,27.90
2018-09-05T16:39:00.699Z,27.80
2018-09-05T16:41:29.957Z,27.70
2018-09-05T16:43:59.169Z,27.50
2018-09-05T16:46:28.864Z,27.30
2018-09-05T16:48:58.216Z,27.20
2018-09-05T16:51:27.390Z,27.10
2018-09-05T16:53:56.605Z,26.90
2018-09-05T16:56:26.142Z,26.80
2018-09-05T16:58:55.788Z,26.60
2018-09-05T17:01:25.104Z,26.50
2018-09-05T17:03:54.312Z,26.40
2018-09-05T17:06:23.547Z,26.40
2018-09-05T17:08:53.083Z,26.20
2018-09-05T17:11:22.796Z,26.10
2018-09-05T17:13:52.354Z,26.10
2018-09-05T17:16:21.596Z,25.90
2018-09-05T17:18:50.819Z,25.90
2018-09-05T17:21:20.133Z,25.80
2018-09-05T17:23:49.354Z,25.80
2018-09-05T17:26:19.344Z,25.70
2018-09-05T17:28:48.690Z,25.60
2018-09-05T17:31:17.924Z,25.50
2018-09-05T17:33:47.287Z,25.40
2018-09-05T17:36:16.943Z,25.30
2018-09-05T17:38:46.081Z,25.20
2018-09-05T17:41:15.409Z,25.10
2018-09-05T17:43:44.617Z,25.00
2018-09-05T17:46:13.857Z,24.90
2018-09-05T17:48:43.018Z,24.70
2018-09-05T17:51:12.318Z,24.50
2018-09-05T17:53:41.799Z,24.40
2018-09-05T17:56:11.023Z,24.40
2018-09-05T17:58:40.354Z,24.30
2018-09-05T18:01:12.647Z,24.20
2018-09-05T18:03:41.851Z,24.10
2018-09-05T18:06:11.038Z,24.00
2018-09-05T18:08:40.243Z,23.90
2018-09-05T18:11:09.762Z,23.80
2018-09-05T18:13:38.873Z,23.70
2018-09-05T18:16:08.188Z,23.50
2018-09-05T18:18:37.309Z,23.40
2018-09-05T18:21:06.548Z,23.20
2018-09-05T18:23:35.798Z,23.20
2018-09-05T18:26:05.245Z,23.10
2018-09-05T18:28:34.566Z,23.00
2018-09-05T18:31:03.810Z,23.00
2018-09-05T18:33:32.996Z,23.00
2018-09-05T18:36:02.432Z,22.80
2018-09-05T18:38:31.735Z,22.70
2018-09-05T18:41:00.939Z,22.60
2018-09-05T18:43:30.820Z,22.50
2018-09-05T18:45:59.864Z,22.40
2018-09-05T18:48:28.920Z,22.40
2018-09-05T18:50:58.998Z,22.40
2018-09-05T18:53:28.195Z,22.40
2018-09-05T18:55:57.458Z,22.40
2018-09-05T18:58:26.792Z,22.40
2018-09-05T19:00:55.877Z,22.20
2018-09-05T19:03:25.306Z,22.10
2018-09-05T19:05:54.514Z,22.10
2018-09-05T19:08:23.748Z,21.90
2018-09-05T19:10:53.008Z,21.90
2018-09-05T19:13:25.068Z,21.80
2018-09-05T19:15:54.619Z,21.80
2018-09-05T19:18:23.919Z,21.80
2018-09-05T19:20:53.199Z,21.80
2018-09-05T19:23:23.044Z,21.80
2018-09-05T19:25:52.714Z,21.80
2018-09-05T19:28:22.755Z,21.70
2018-09-05T19:30:51.887Z,21.70
2018-09-05T19:33:21.264Z,21.70
2018-09-05T19:35:51.044Z,21.70
2018-09-05T19:38:20.429Z,21.70
2018-09-05T19:40:49.761Z,21.60
2018-09-05T19:43:19.151Z,21.60
2018-09-05T19:45:50.359Z,21.50
2018-09-05T19:48:19.693Z,21.50
2018-09-05T19:50:50.768Z,21.40
2018-09-05T19:53:20.081Z,21.40
2018-09-05T19:55:49.414Z,21.30
2018-09-05T19:58:19.526Z,21.30
2018-09-05T20:00:48.887Z,21.30
2018-09-05T20:03:20.016Z,21.30
2018-09-05T20:05:49.663Z,21.20
2018-09-05T20:08:19.911Z,21.20
2018-09-05T20:10:49.228Z,21.10
2018-09-05T20:13:18.689Z,21.10
2018-09-05T20:15:48.421Z,21.00
2018-09-05T20:18:18.695Z,20.90
2018-09-05T20:20:47.828Z,20.90
2018-09-05T20:23:17.688Z,20.90
2018-09-05T20:25:47.786Z,20.80
2018-09-05T20:28:18.111Z,20.70
2018-09-05T20:30:47.462Z,20.60
2018-09-05T20:33:17.574Z,20.50
2018-09-05T20:35:46.880Z,20.40
2018-09-05T20:38:16.752Z,20.30
2018-09-05T20:40:46.011Z,20.10
2018-09-05T20:43:15.100Z,19.90
2018-09-05T20:45:45.227Z,19.80
2018-09-05T20:48:14.387Z,19.60
2018-09-05T20:50:44.270Z,19.50
2018-09-05T20:53:13.529Z,19.40
2018-09-05T20:55:42.825Z,19.30
2018-09-05T20:58:12.175Z,19.20
2018-09-05T21:00:41.460Z,19.20
2018-09-05T21:03:10.629Z,19.20
2018-09-05T21:05:40.006Z,19.20
2018-09-05T21:08:09.314Z,19.10
2018-09-05T21:10:38.467Z,19.10
2018-09-05T21:13:07.667Z,19.00
2018-09-05T21:15:39.201Z,18.90
2018-09-05T21:18:08.635Z,18.80
2018-09-05T21:20:37.629Z,18.70
2018-09-05T21:23:06.927Z,18.60
2018-09-05T21:25:36.221Z,18.50
2018-09-05T21:28:05.448Z,18.40
2018-09-05T21:30:34.775Z,18.30
2018-09-05T21:33:04.686Z,18.20
2018-09-05T21:35:34.146Z,18.30
2018-09-05T21:38:03.604Z,18.30
2018-09-05T21:40:33.538Z,18.20
2018-09-05T21:43:02.882Z,18.10
2018-09-05T21:45:32.462Z,18.10
2018-09-05T21:48:01.581Z,18.40
2018-09-05T21:50:52.019Z,18.00
2018-09-05T21:53:21.476Z,17.90
2018-09-05T21:55:51.166Z,17.90
2018-09-05T21:58:20.284Z,17.80
2018-09-05T22:00:49.735Z,17.80
2018-09-05T22:03:18.852Z,17.80
2018-09-05T22:05:48.014Z,17.80
2018-09-05T22:08:16.988Z,17.80
2018-09-05T22:10:47.330Z,17.70
2018-09-05T22:18:16.381Z,17.60
2018-09-05T22:20:46.354Z,17.60
2018-09-05T22:23:15.505Z,17.50
2018-09-05T22:25:44.735Z,17.50
2018-09-05T22:28:14.476Z,17.40
2018-09-05T22:30:43.759Z,17.50
2018-09-05T22:33:13.275Z,17.50
2018-09-05T22:35:42.437Z,17.50
2018-09-05T22:38:11.691Z,17.40
2018-09-05T22:40:46.243Z,17.30
2018-09-05T22:45:34.644Z,17.20
2018-09-05T22:50:27.921Z,17.10
2018-09-05T22:53:34.764Z,16.90
2018-09-05T23:00:27.311Z,16.70
2018-09-05T23:05:17.296Z,16.60
2018-09-05T23:08:09.358Z,16.50
2018-09-05T23:10:49.537Z,16.50
2018-09-05T23:13:32.562Z,16.40
2018-09-05T23:16:13.813Z,16.40
2018-09-05T23:18:54.068Z,16.30
2018-09-05T23:21:24.537Z,16.30
2018-09-05T23:24:01.023Z,16.30
2018-09-05T23:26:30.141Z,16.20
2018-09-05T23:28:59.191Z,16.10
2018-09-05T23:31:28.392Z,16.00
2018-09-05T23:33:57.473Z,15.90
2018-09-05T23:36:26.732Z,15.90
2018-09-05T23:38:56.107Z,15.80
2018-09-05T23:41:25.122Z,15.90
2018-09-05T23:43:54.110Z,16.00
2018-09-05T23:46:23.229Z,16.00
2018-09-05T23:48:52.354Z,16.10
2018-09-05T23:51:21.547Z,16.10
2018-09-05T23:53:50.795Z,16.20
2018-09-05T23:56:20.253Z,16.30
2018-09-05T23:58:49.639Z,16.30
